sensor_id;sensor_type;location;lat;lon;timestamp;pressure;altitude;pressure_sealevel;temperature;humidity
75196;BME280;63773;42.282;22.782;2022-10-16T00:01:18;97094.41;;;8.02;69.78
75196;BME280;63773;42.282;22.782;2022-10-16T00:03:45;97090.19;;;7.88;70.36
75196;BME280;63773;42.282;22.782;2022-10-16T00:06:11;97091.03;;;7.89;70.57
75196;BME280;63773;42.282;22.782;2022-10-16T00:08:38;97095.19;;;7.91;70.28
75196;BME280;63773;42.282;22.782;2022-10-16T00:11:14;97110.50;;;7.74;71.27
75196;BME280;63773;42.282;22.782;2022-10-16T00:13:42;97109.22;;;7.77;71.07
75196;BME280;63773;42.282;22.782;2022-10-16T00:16:08;97115.81;;;7.69;71.41
75196;BME280;63773;42.282;22.782;2022-10-16T00:18:34;97097.84;;;7.80;70.84
75196;BME280;63773;42.282;22.782;2022-10-16T00:21:14;97108.38;;;7.76;71.25
75196;BME280;63773;42.282;22.782;2022-10-16T00:23:40;97109.91;;;7.72;71.72
75196;BME280;63773;42.282;22.782;2022-10-16T00:26:08;97108.69;;;7.86;70.71
75196;BME280;63773;42.282;22.782;2022-10-16T00:28:35;97106.09;;;7.91;69.63
75196;BME280;63773;42.282;22.782;2022-10-16T00:31:07;97112.84;;;7.89;70.15
75196;BME280;63773;42.282;22.782;2022-10-16T00:33:35;97119.03;;;7.96;70.45
75196;BME280;63773;42.282;22.782;2022-10-16T00:36:02;97115.00;;;7.50;69.74
75196;BME280;63773;42.282;22.782;2022-10-16T00:38:28;97122.19;;;7.45;68.98
75196;BME280;63773;42.282;22.782;2022-10-16T00:40:54;97118.00;;;7.42;68.62
75196;BME280;63773;42.282;22.782;2022-10-16T00:45:57;97122.66;;;7.17;69.67
75196;BME280;63773;42.282;22.782;2022-10-16T00:48:23;97122.56;;;7.06;70.50
75196;BME280;63773;42.282;22.782;2022-10-16T00:50:49;97123.25;;;7.01;71.32
75196;BME280;63773;42.282;22.782;2022-10-16T00:53:14;97124.78;;;7.15;71.65
75196;BME280;63773;42.282;22.782;2022-10-16T00:55:41;97126.47;;;7.16;70.82
75196;BME280;63773;42.282;22.782;2022-10-16T00:58:06;97121.22;;;7.15;70.60
75196;BME280;63773;42.282;22.782;2022-10-16T01:00:32;97107.84;;;7.13;69.57
75196;BME280;63773;42.282;22.782;2022-10-16T01:02:59;97127.75;;;7.32;69.02
75196;BME280;63773;42.282;22.782;2022-10-16T01:05:41;97131.31;;;7.32;69.32
75196;BME280;63773;42.282;22.782;2022-10-16T01:08:17;97130.88;;;7.35;69.08
75196;BME280;63773;42.282;22.782;2022-10-16T01:13:25;97130.63;;;7.19;70.02
75196;BME280;63773;42.282;22.782;2022-10-16T01:16:18;97132.91;;;7.22;69.57
75196;BME280;63773;42.282;22.782;2022-10-16T01:19:10;97139.97;;;7.23;69.20
75196;BME280;63773;42.282;22.782;2022-10-16T01:21:42;97140.44;;;7.20;69.83
75196;BME280;63773;42.282;22.782;2022-10-16T01:27:39;97142.34;;;7.19;69.67
75196;BME280;63773;42.282;22.782;2022-10-16T01:30:17;97140.38;;;7.08;69.93
75196;BME280;63773;42.282;22.782;2022-10-16T01:32:49;97148.34;;;7.03;70.10
75196;BME280;63773;42.282;22.782;2022-10-16T01:35:21;97142.78;;;6.91;69.19
75196;BME280;63773;42.282;22.782;2022-10-16T01:40:46;97133.72;;;6.79;70.19
75196;BME280;63773;42.282;22.782;2022-10-16T01:43:15;97137.53;;;6.96;70.07
75196;BME280;63773;42.282;22.782;2022-10-16T01:45:44;97129.50;;;6.52;70.07
75196;BME280;63773;42.282;22.782;2022-10-16T01:48:12;97128.94;;;6.44;70.84
75196;BME280;63773;42.282;22.782;2022-10-16T01:50:41;97127.88;;;6.51;71.76
75196;BME280;63773;42.282;22.782;2022-10-16T01:53:11;97136.59;;;6.60;71.36
75196;BME280;63773;42.282;22.782;2022-10-16T01:55:40;97138.59;;;6.71;71.16
75196;BME280;63773;42.282;22.782;2022-10-16T01:58:11;97148.47;;;6.34;71.39
75196;BME280;63773;42.282;22.782;2022-10-16T02:00:41;97131.84;;;6.17;71.16
75196;BME280;63773;42.282;22.782;2022-10-16T02:03:08;97152.78;;;6.48;70.92
75196;BME280;63773;42.282;22.782;2022-10-16T02:05:46;97149.75;;;6.63;70.80
75196;BME280;63773;42.282;22.782;2022-10-16T02:08:12;97162.03;;;6.41;70.45
75196;BME280;63773;42.282;22.782;2022-10-16T02:10:38;97159.09;;;6.42;70.97
75196;BME280;63773;42.282;22.782;2022-10-16T02:15:54;97166.22;;;6.36;70.91
75196;BME280;63773;42.282;22.782;2022-10-16T02:18:20;97178.72;;;6.44;71.13
75196;BME280;63773;42.282;22.782;2022-10-16T02:23:51;97158.91;;;5.99;71.39
75196;BME280;63773;42.282;22.782;2022-10-16T02:26:38;97182.31;;;6.38;70.17
75196;BME280;63773;42.282;22.782;2022-10-16T02:29:12;97187.06;;;6.11;69.90
75196;BME280;63773;42.282;22.782;2022-10-16T02:31:43;97193.47;;;5.66;70.64
75196;BME280;63773;42.282;22.782;2022-10-16T02:34:13;97185.16;;;5.61;71.75
75196;BME280;63773;42.282;22.782;2022-10-16T02:36:41;97186.34;;;5.78;71.01
75196;BME280;63773;42.282;22.782;2022-10-16T02:39:08;97183.22;;;5.81;71.74
75196;BME280;63773;42.282;22.782;2022-10-16T02:41:34;97197.78;;;5.93;71.53
75196;BME280;63773;42.282;22.782;2022-10-16T02:43:59;97196.09;;;5.99;71.18
75196;BME280;63773;42.282;22.782;2022-10-16T02:46:24;97192.13;;;6.01;71.34
75196;BME280;63773;42.282;22.782;2022-10-16T02:48:50;97196.91;;;6.06;71.08
75196;BME280;63773;42.282;22.782;2022-10-16T02:51:15;97187.53;;;6.02;70.88
75196;BME280;63773;42.282;22.782;2022-10-16T02:53:41;97201.59;;;5.92;70.39
75196;BME280;63773;42.282;22.782;2022-10-16T02:56:06;97193.00;;;5.82;70.76
75196;BME280;63773;42.282;22.782;2022-10-16T02:58:32;97193.00;;;5.82;71.48
75196;BME280;63773;42.282;22.782;2022-10-16T03:00:57;97192.59;;;5.85;70.56
75196;BME280;63773;42.282;22.782;2022-10-16T03:03:22;97190.94;;;5.77;70.94
75196;BME280;63773;42.282;22.782;2022-10-16T03:05:48;97188.09;;;5.53;72.71
75196;BME280;63773;42.282;22.782;2022-10-16T03:08:13;97195.16;;;5.67;71.82
75196;BME280;63773;42.282;22.782;2022-10-16T03:10:39;97197.00;;;5.73;71.63
75196;BME280;63773;42.282;22.782;2022-10-16T03:13:05;97194.75;;;5.70;71.50
75196;BME280;63773;42.282;22.782;2022-10-16T03:15:30;97205.75;;;5.81;71.14
75196;BME280;63773;42.282;22.782;2022-10-16T03:17:59;97196.38;;;5.77;71.47
75196;BME280;63773;42.282;22.782;2022-10-16T03:20:25;97201.22;;;5.62;71.38
75196;BME280;63773;42.282;22.782;2022-10-16T03:22:50;97193.66;;;5.71;71.47
75196;BME280;63773;42.282;22.782;2022-10-16T03:25:16;97190.53;;;5.74;71.32
75196;BME280;63773;42.282;22.782;2022-10-16T03:27:42;97191.38;;;5.68;72.14
75196;BME280;63773;42.282;22.782;2022-10-16T03:30:08;97182.84;;;5.64;71.83
75196;BME280;63773;42.282;22.782;2022-10-16T03:32:33;97177.81;;;5.68;71.63
75196;BME280;63773;42.282;22.782;2022-10-16T03:34:59;97191.56;;;5.73;72.28
75196;BME280;63773;42.282;22.782;2022-10-16T03:37:24;97197.00;;;5.73;72.67
75196;BME280;63773;42.282;22.782;2022-10-16T03:39:50;97199.50;;;5.74;72.12
75196;BME280;63773;42.282;22.782;2022-10-16T03:42:15;97209.53;;;5.80;71.22
75196;BME280;63773;42.282;22.782;2022-10-16T03:44:40;97205.19;;;5.60;72.09
75196;BME280;63773;42.282;22.782;2022-10-16T03:47:06;97188.28;;;5.64;71.67
75196;BME280;63773;42.282;22.782;2022-10-16T03:49:31;97215.44;;;5.58;71.25
75196;BME280;63773;42.282;22.782;2022-10-16T03:51:57;97211.69;;;5.39;70.64
75196;BME280;63773;42.282;22.782;2022-10-16T03:54:22;97191.94;;;5.19;72.38
75196;BME280;63773;42.282;22.782;2022-10-16T03:56:48;97196.47;;;5.32;72.01
75196;BME280;63773;42.282;22.782;2022-10-16T03:59:13;97206.69;;;5.49;72.67
75196;BME280;63773;42.282;22.782;2022-10-16T04:01:39;97198.75;;;5.48;72.20
75196;BME280;63773;42.282;22.782;2022-10-16T04:04:05;97206.69;;;5.56;72.05
75196;BME280;63773;42.282;22.782;2022-10-16T04:06:30;97191.91;;;5.39;72.33
75196;BME280;63773;42.282;22.782;2022-10-16T04:08:56;97199.16;;;5.51;71.94
75196;BME280;63773;42.282;22.782;2022-10-16T04:11:21;97198.75;;;5.48;70.87
75196;BME280;63773;42.282;22.782;2022-10-16T04:13:47;97199.16;;;5.51;71.76
75196;BME280;63773;42.282;22.782;2022-10-16T04:16:12;97202.13;;;5.23;72.51
75196;BME280;63773;42.282;22.782;2022-10-16T04:18:38;97172.31;;;4.97;71.55
75196;BME280;63773;42.282;22.782;2022-10-16T04:21:05;97203.78;;;5.31;70.81
75196;BME280;63773;42.282;22.782;2022-10-16T04:23:30;97201.94;;;5.05;70.68
75196;BME280;63773;42.282;22.782;2022-10-16T04:25:56;97203.19;;;4.70;71.86
75196;BME280;63773;42.282;22.782;2022-10-16T04:28:21;97214.84;;;4.77;71.46
75196;BME280;63773;42.282;22.782;2022-10-16T04:30:47;97207.34;;;4.86;72.69
75196;BME280;63773;42.282;22.782;2022-10-16T04:33:12;97211.09;;;4.72;72.63
75196;BME280;63773;42.282;22.782;2022-10-16T04:35:38;97220.53;;;4.82;72.60
75196;BME280;63773;42.282;22.782;2022-10-16T04:38:03;97205.91;;;4.83;71.75
75196;BME280;63773;42.282;22.782;2022-10-16T04:40:29;97213.41;;;4.68;72.51
75196;BME280;63773;42.282;22.782;2022-10-16T04:42:58;97207.97;;;4.55;72.96
75196;BME280;63773;42.282;22.782;2022-10-16T04:45:23;97205.28;;;4.75;72.13
75196;BME280;63773;42.282;22.782;2022-10-16T04:47:49;97209.03;;;4.87;72.03
75196;BME280;63773;42.282;22.782;2022-10-16T04:50:14;97215.09;;;4.62;72.36
75196;BME280;63773;42.282;22.782;2022-10-16T04:52:40;97225.69;;;4.51;73.39
75196;BME280;63773;42.282;22.782;2022-10-16T04:55:06;97228.41;;;4.64;72.56
75196;BME280;63773;42.282;22.782;2022-10-16T04:57:31;97225.50;;;4.65;73.03
75196;BME280;63773;42.282;22.782;2022-10-16T04:59:58;97230.47;;;4.55;73.65
75196;BME280;63773;42.282;22.782;2022-10-16T05:02:24;97215.06;;;4.56;73.92
75196;BME280;63773;42.282;22.782;2022-10-16T05:04:49;97240.31;;;4.76;74.35
75196;BME280;63773;42.282;22.782;2022-10-16T05:07:14;97231.38;;;4.82;73.16
75196;BME280;63773;42.282;22.782;2022-10-16T05:09:40;97225.72;;;4.71;73.88
75196;BME280;63773;42.282;22.782;2022-10-16T05:12:06;97225.09;;;4.75;73.11
75196;BME280;63773;42.282;22.782;2022-10-16T05:14:31;97239.50;;;4.95;73.50
75196;BME280;63773;42.282;22.782;2022-10-16T05:16:57;97243.06;;;4.96;73.50
75196;BME280;63773;42.282;22.782;2022-10-16T05:19:22;97241.16;;;4.90;74.01
75196;BME280;63773;42.282;22.782;2022-10-16T05:21:47;97232.00;;;5.04;73.71
75196;BME280;63773;42.282;22.782;2022-10-16T05:24:13;97234.69;;;5.04;73.80
75196;BME280;63773;42.282;22.782;2022-10-16T05:26:39;97247.84;;;5.20;73.76
75196;BME280;63773;42.282;22.782;2022-10-16T05:29:04;97243.88;;;5.22;73.70
75196;BME280;63773;42.282;22.782;2022-10-16T05:31:30;97252.88;;;5.36;72.48
75196;BME280;63773;42.282;22.782;2022-10-16T05:33:59;97251.78;;;5.37;73.40
75196;BME280;63773;42.282;22.782;2022-10-16T05:36:25;97272.25;;;5.20;74.14
75196;BME280;63773;42.282;22.782;2022-10-16T05:38:51;97264.75;;;5.35;73.45
75196;BME280;63773;42.282;22.782;2022-10-16T05:41:17;97259.75;;;5.39;74.50
75196;BME280;63773;42.282;22.782;2022-10-16T05:43:49;97265.34;;;5.57;73.47
75196;BME280;63773;42.282;22.782;2022-10-16T05:46:16;97262.41;;;5.71;73.96
75196;BME280;63773;42.282;22.782;2022-10-16T05:48:41;97272.66;;;5.63;74.02
75196;BME280;63773;42.282;22.782;2022-10-16T05:51:10;97275.56;;;5.68;74.59
75196;BME280;63773;42.282;22.782;2022-10-16T05:53:37;97274.72;;;5.74;74.11
75196;BME280;63773;42.282;22.782;2022-10-16T05:56:04;97279.31;;;5.87;72.71
75196;BME280;63773;42.282;22.782;2022-10-16T05:58:34;97285.38;;;5.89;73.23
75196;BME280;63773;42.282;22.782;2022-10-16T06:01:06;97279.09;;;5.88;75.04
75196;BME280;63773;42.282;22.782;2022-10-16T06:03:33;97278.47;;;5.93;74.90
75196;BME280;63773;42.282;22.782;2022-10-16T06:05:58;97290.75;;;6.02;74.90
75196;BME280;63773;42.282;22.782;2022-10-16T06:08:24;97282.59;;;6.08;73.58
75196;BME280;63773;42.282;22.782;2022-10-16T06:11:01;97286.09;;;6.22;73.09
75196;BME280;63773;42.282;22.782;2022-10-16T06:13:27;97280.41;;;6.30;73.68
75196;BME280;63773;42.282;22.782;2022-10-16T06:15:52;97299.41;;;6.43;74.20
75196;BME280;63773;42.282;22.782;2022-10-16T06:18:18;97287.47;;;6.44;73.99
75196;BME280;63773;42.282;22.782;2022-10-16T06:20:43;97286.75;;;6.62;72.93
75196;BME280;63773;42.282;22.782;2022-10-16T06:23:08;97289.63;;;6.73;73.19
75196;BME280;63773;42.282;22.782;2022-10-16T06:25:34;97295.16;;;6.91;73.34
75196;BME280;63773;42.282;22.782;2022-10-16T06:27:59;97301.56;;;7.04;72.75
75196;BME280;63773;42.282;22.782;2022-10-16T06:30:24;97299.44;;;7.12;72.04
75196;BME280;63773;42.282;22.782;2022-10-16T06:32:50;97303.00;;;7.13;73.31
75196;BME280;63773;42.282;22.782;2022-10-16T06:35:15;97296.34;;;7.33;72.55
75196;BME280;63773;42.282;22.782;2022-10-16T06:37:41;97305.84;;;7.24;72.77
75196;BME280;63773;42.282;22.782;2022-10-16T06:40:06;97294.28;;;7.29;74.25
75196;BME280;63773;42.282;22.782;2022-10-16T06:42:32;97309.41;;;7.49;74.12
75196;BME280;63773;42.282;22.782;2022-10-16T06:44:58;97299.03;;;7.65;73.44
75196;BME280;63773;42.282;22.782;2022-10-16T06:47:23;97305.47;;;7.70;74.58
75196;BME280;63773;42.282;22.782;2022-10-16T06:49:49;97312.81;;;7.88;74.17
75196;BME280;63773;42.282;22.782;2022-10-16T06:52:14;97310.03;;;7.94;73.14
75196;BME280;63773;42.282;22.782;2022-10-16T06:54:39;97318.78;;;8.21;74.15
75196;BME280;63773;42.282;22.782;2022-10-16T06:57:05;97315.16;;;8.27;72.10
75196;BME280;63773;42.282;22.782;2022-10-16T06:59:30;97298.41;;;8.42;73.40
75196;BME280;63773;42.282;22.782;2022-10-16T07:01:56;97320.56;;;8.52;73.93
75196;BME280;63773;42.282;22.782;2022-10-16T07:04:21;97326.81;;;8.52;74.06
75196;BME280;63773;42.282;22.782;2022-10-16T07:06:46;97327.72;;;8.64;73.71
75196;BME280;63773;42.282;22.782;2022-10-16T07:09:12;97328.69;;;8.88;74.01
75196;BME280;63773;42.282;22.782;2022-10-16T07:11:39;97323.63;;;9.03;72.66
75196;BME280;63773;42.282;22.782;2022-10-16T07:14:05;97324.59;;;8.97;71.00
75196;BME280;63773;42.282;22.782;2022-10-16T07:16:35;97317.38;;;9.14;71.51
75196;BME280;63773;42.282;22.782;2022-10-16T07:19:02;97319.81;;;9.22;71.77
75196;BME280;63773;42.282;22.782;2022-10-16T07:21:29;97308.09;;;9.34;71.77
75196;BME280;63773;42.282;22.782;2022-10-16T07:23:58;97313.94;;;9.49;70.87
75196;BME280;63773;42.282;22.782;2022-10-16T07:26:24;97305.16;;;9.58;70.58
75196;BME280;63773;42.282;22.782;2022-10-16T07:28:50;97290.19;;;9.61;70.44
75196;BME280;63773;42.282;22.782;2022-10-16T07:31:16;97302.00;;;9.84;70.31
75196;BME280;63773;42.282;22.782;2022-10-16T07:33:42;97310.41;;;9.95;70.03
75196;BME280;63773;42.282;22.782;2022-10-16T07:36:10;97313.16;;;10.06;69.34
75196;BME280;63773;42.282;22.782;2022-10-16T07:38:36;97299.13;;;10.26;69.13
75196;BME280;63773;42.282;22.782;2022-10-16T07:41:06;97295.09;;;10.28;70.41
75196;BME280;63773;42.282;22.782;2022-10-16T07:43:32;97306.13;;;10.45;69.52
75196;BME280;63773;42.282;22.782;2022-10-16T07:45:58;97301.00;;;10.60;69.29
75196;BME280;63773;42.282;22.782;2022-10-16T07:48:27;97302.59;;;10.73;68.70
75196;BME280;63773;42.282;22.782;2022-10-16T07:50:57;97308.41;;;10.88;69.48
75196;BME280;63773;42.282;22.782;2022-10-16T07:53:22;97305.97;;;11.03;68.51
75196;BME280;63773;42.282;22.782;2022-10-16T07:55:48;97301.81;;;11.29;68.02
75196;BME280;63773;42.282;22.782;2022-10-16T07:58:13;97300.06;;;11.39;66.37
75196;BME280;63773;42.282;22.782;2022-10-16T08:00:39;97300.91;;;11.40;67.04
75196;BME280;63773;42.282;22.782;2022-10-16T08:03:04;97285.97;;;11.47;67.67
75196;BME280;63773;42.282;22.782;2022-10-16T08:05:31;97295.19;;;11.58;66.11
75196;BME280;63773;42.282;22.782;2022-10-16T08:07:57;97274.72;;;11.66;66.74
75196;BME280;63773;42.282;22.782;2022-10-16T08:10:25;97275.94;;;11.86;66.25
75196;BME280;63773;42.282;22.782;2022-10-16T08:12:52;97296.97;;;11.81;64.90
75196;BME280;63773;42.282;22.782;2022-10-16T08:15:18;97298.34;;;12.16;66.25
75196;BME280;63773;42.282;22.782;2022-10-16T08:17:43;97299.13;;;12.34;65.88
75196;BME280;63773;42.282;22.782;2022-10-16T08:20:10;97295.84;;;12.53;64.11
75196;BME280;63773;42.282;22.782;2022-10-16T08:22:35;97289.78;;;12.51;64.22
75196;BME280;63773;42.282;22.782;2022-10-16T08:25:01;97286.97;;;12.68;63.50
75196;BME280;63773;42.282;22.782;2022-10-16T08:27:32;97284.81;;;12.70;63.84
75196;BME280;63773;42.282;22.782;2022-10-16T08:29:58;97282.31;;;12.90;64.69
75196;BME280;63773;42.282;22.782;2022-10-16T08:32:23;97273.50;;;13.10;64.28
75196;BME280;63773;42.282;22.782;2022-10-16T08:34:49;97279.19;;;13.30;64.02
75196;BME280;63773;42.282;22.782;2022-10-16T08:37:14;97266.16;;;13.47;63.96
75196;BME280;63773;42.282;22.782;2022-10-16T08:39:40;97271.03;;;13.67;63.50
75196;BME280;63773;42.282;22.782;2022-10-16T08:47:43;97269.97;;;14.05;61.90
75196;BME280;63773;42.282;22.782;2022-10-16T08:50:24;97272.44;;;14.43;61.85
75196;BME280;63773;42.282;22.782;2022-10-16T08:52:50;97276.63;;;14.51;61.31
75196;BME280;63773;42.282;22.782;2022-10-16T08:58:18;97275.16;;;15.00;60.92
75196;BME280;63773;42.282;22.782;2022-10-16T09:00:51;97269.38;;;15.01;60.45
75196;BME280;63773;42.282;22.782;2022-10-16T09:06:24;97256.78;;;15.21;58.50
75196;BME280;63773;42.282;22.782;2022-10-16T09:12:11;97260.44;;;15.62;57.74
75196;BME280;63773;42.282;22.782;2022-10-16T09:15:01;97265.69;;;15.78;58.04
75196;BME280;63773;42.282;22.782;2022-10-16T09:20:28;97257.13;;;16.05;56.16
75196;BME280;63773;42.282;22.782;2022-10-16T09:25:50;97248.25;;;16.33;56.50
75196;BME280;63773;42.282;22.782;2022-10-16T09:28:17;97245.16;;;16.50;55.90
75196;BME280;63773;42.282;22.782;2022-10-16T09:30:43;97245.47;;;16.53;54.40
75196;BME280;63773;42.282;22.782;2022-10-16T09:33:10;97239.28;;;16.77;52.86
75196;BME280;63773;42.282;22.782;2022-10-16T09:38:01;97220.25;;;16.70;55.48
75196;BME280;63773;42.282;22.782;2022-10-16T09:40:31;97248.28;;;17.02;56.55
75196;BME280;63773;42.282;22.782;2022-10-16T09:45:41;97236.06;;;17.18;52.18
75196;BME280;63773;42.282;22.782;2022-10-16T09:48:17;97239.13;;;17.12;52.75
75196;BME280;63773;42.282;22.782;2022-10-16T09:50:55;97226.81;;;17.33;53.99
75196;BME280;63773;42.282;22.782;2022-10-16T09:53:21;97226.09;;;17.61;53.47
75196;BME280;63773;42.282;22.782;2022-10-16T09:55:52;97215.44;;;17.78;53.50
75196;BME280;63773;42.282;22.782;2022-10-16T09:58:21;97206.75;;;17.90;51.89
75196;BME280;63773;42.282;22.782;2022-10-16T10:00:52;97217.72;;;18.05;49.63
75196;BME280;63773;42.282;22.782;2022-10-16T10:06:35;97205.69;;;18.15;48.41
75196;BME280;63773;42.282;22.782;2022-10-16T10:09:04;97203.41;;;18.22;49.13
75196;BME280;63773;42.282;22.782;2022-10-16T10:16:46;97193.44;;;18.73;46.79
75196;BME280;63773;42.282;22.782;2022-10-16T10:19:21;97191.41;;;18.79;45.64
75196;BME280;63773;42.282;22.782;2022-10-16T10:21:47;97178.97;;;18.95;45.89
75196;BME280;63773;42.282;22.782;2022-10-16T10:24:14;97174.94;;;19.06;45.35
75196;BME280;63773;42.282;22.782;2022-10-16T10:27:06;97174.66;;;19.26;43.61
75196;BME280;63773;42.282;22.782;2022-10-16T10:29:49;97168.41;;;19.34;44.40
75196;BME280;63773;42.282;22.782;2022-10-16T10:33:06;97171.09;;;19.44;45.94
75196;BME280;63773;42.282;22.782;2022-10-16T10:35:25;97169.94;;;19.64;42.09
75196;BME280;63773;42.282;22.782;2022-10-16T10:43:48;97154.06;;;19.65;41.73
75196;BME280;63773;42.282;22.782;2022-10-16T10:46:35;97139.91;;;19.66;40.89
75196;BME280;63773;42.282;22.782;2022-10-16T11:00:07;97134.09;;;20.54;42.82
75196;BME280;63773;42.282;22.782;2022-10-16T11:08:08;97136.00;;;20.81;37.99
75196;BME280;63773;42.282;22.782;2022-10-16T11:10:53;97124.47;;;20.60;39.25
75196;BME280;63773;42.282;22.782;2022-10-16T11:13:50;97120.06;;;20.73;41.49
75196;BME280;63773;42.282;22.782;2022-10-16T11:21:50;97112.09;;;20.94;40.72
75196;BME280;63773;42.282;22.782;2022-10-16T11:24:41;97105.56;;;21.12;38.20
75196;BME280;63773;42.282;22.782;2022-10-16T11:27:11;97102.47;;;21.13;37.29
75196;BME280;63773;42.282;22.782;2022-10-16T11:29:46;97111.47;;;21.10;37.70
75196;BME280;63773;42.282;22.782;2022-10-16T11:32:23;97105.25;;;21.13;37.29
75196;BME280;63773;42.282;22.782;2022-10-16T11:34:58;97108.16;;;21.08;37.91
75196;BME280;63773;42.282;22.782;2022-10-16T11:37:28;97104.81;;;21.06;36.09
75196;BME280;63773;42.282;22.782;2022-10-16T11:39:59;97097.56;;;21.33;35.77
75196;BME280;63773;42.282;22.782;2022-10-16T11:42:37;97104.72;;;21.11;30.74
75196;BME280;63773;42.282;22.782;2022-10-16T11:45:26;97093.25;;;21.26;31.32
75196;BME280;63773;42.282;22.782;2022-10-16T11:48:04;97088.19;;;21.28;34.02
75196;BME280;63773;42.282;22.782;2022-10-16T11:50:41;97095.34;;;21.21;33.68
75196;BME280;63773;42.282;22.782;2022-10-16T11:53:37;97095.13;;;21.17;33.34
75196;BME280;63773;42.282;22.782;2022-10-16T11:56:05;97084.91;;;21.26;34.54
75196;BME280;63773;42.282;22.782;2022-10-16T12:04:11;97071.47;;;21.28;32.25
75196;BME280;63773;42.282;22.782;2022-10-16T12:06:53;97083.25;;;21.25;31.31
75196;BME280;63773;42.282;22.782;2022-10-16T12:09:30;97082.56;;;21.42;31.22
75196;BME280;63773;42.282;22.782;2022-10-16T12:11:56;97079.78;;;21.42;33.11
75196;BME280;63773;42.282;22.782;2022-10-16T12:14:42;97084.59;;;21.50;31.41
75196;BME280;63773;42.282;22.782;2022-10-16T12:20:01;97081.03;;;21.58;30.27
75196;BME280;63773;42.282;22.782;2022-10-16T12:22:29;97081.97;;;21.54;29.49
75196;BME280;63773;42.282;22.782;2022-10-16T12:24:56;97080.84;;;21.55;29.66
75196;BME280;63773;42.282;22.782;2022-10-16T12:27:29;97082.69;;;21.37;29.10
75196;BME280;63773;42.282;22.782;2022-10-16T12:30:00;97084.69;;;21.45;28.19
75196;BME280;63773;42.282;22.782;2022-10-16T12:35:03;97086.47;;;21.63;28.83
75196;BME280;63773;42.282;22.782;2022-10-16T12:37:34;97091.84;;;21.60;29.81
75196;BME280;63773;42.282;22.782;2022-10-16T12:40:13;97080.34;;;21.53;27.73
75196;BME280;63773;42.282;22.782;2022-10-16T12:42:40;97084.59;;;21.50;28.84
75196;BME280;63773;42.282;22.782;2022-10-16T12:45:31;97082.56;;;21.64;30.12
75196;BME280;63773;42.282;22.782;2022-10-16T12:47:58;97089.69;;;21.57;29.75
75196;BME280;63773;42.282;22.782;2022-10-16T12:52:56;97080.16;;;21.49;29.40
75196;BME280;63773;42.282;22.782;2022-10-16T12:55:22;97041.47;;;21.25;29.06
75196;BME280;63773;42.282;22.782;2022-10-16T13:00:35;97093.19;;;21.40;27.97
75196;BME280;63773;42.282;22.782;2022-10-16T13:22:05;97092.16;;;21.80;28.28
75196;BME280;63773;42.282;22.782;2022-10-16T13:24:55;97090.84;;;21.56;28.22
75196;BME280;63773;42.282;22.782;2022-10-16T13:27:46;97095.44;;;21.82;29.58
75196;BME280;63773;42.282;22.782;2022-10-16T13:30:22;97083.91;;;21.45;27.65
75196;BME280;63773;42.282;22.782;2022-10-16T13:32:50;97096.41;;;21.78;27.66
75196;BME280;63773;42.282;22.782;2022-10-16T13:35:21;97094.88;;;21.94;28.03
75196;BME280;63773;42.282;22.782;2022-10-16T13:37:47;97093.50;;;21.61;28.48
75196;BME280;63773;42.282;22.782;2022-10-16T13:40:23;97098.66;;;21.67;29.14
75196;BME280;63773;42.282;22.782;2022-10-16T13:42:50;97102.28;;;21.76;28.84
75196;BME280;63773;42.282;22.782;2022-10-16T13:45:21;97105.00;;;21.68;29.34
75196;BME280;63773;42.282;22.782;2022-10-16T13:47:47;97086.13;;;21.65;28.55
75196;BME280;63773;42.282;22.782;2022-10-16T13:50:15;97090.66;;;21.52;28.02
75196;BME280;63773;42.282;22.782;2022-10-16T13:52:41;97093.06;;;21.45;28.19
75196;BME280;63773;42.282;22.782;2022-10-16T13:55:15;97096.78;;;21.63;28.13
75196;BME280;63773;42.282;22.782;2022-10-16T13:57:42;97092.75;;;21.47;27.73
75196;BME280;63773;42.282;22.782;2022-10-16T14:00:23;97099.22;;;21.56;29.67
75196;BME280;63773;42.282;22.782;2022-10-16T14:02:57;97098.75;;;21.40;28.73
75196;BME280;63773;42.282;22.782;2022-10-16T14:05:23;97109.25;;;21.21;28.32
75196;BME280;63773;42.282;22.782;2022-10-16T14:07:50;97099.84;;;21.31;28.21
75196;BME280;63773;42.282;22.782;2022-10-16T14:10:29;97100.22;;;21.38;28.22
75196;BME280;63773;42.282;22.782;2022-10-16T14:12:58;97097.16;;;21.25;28.18
75196;BME280;63773;42.282;22.782;2022-10-16T14:15:25;97108.34;;;20.98;28.00
75196;BME280;63773;42.282;22.782;2022-10-16T14:17:51;97112.97;;;21.03;28.52
75196;BME280;63773;42.282;22.782;2022-10-16T14:23:29;97121.06;;;20.91;27.92
75196;BME280;63773;42.282;22.782;2022-10-16T14:28:37;97119.28;;;20.95;29.29
75196;BME280;63773;42.282;22.782;2022-10-16T14:31:23;97119.56;;;21.07;28.98
75196;BME280;63773;42.282;22.782;2022-10-16T14:33:49;97116.22;;;20.96;28.39
75196;BME280;63773;42.282;22.782;2022-10-16T14:36:16;97108.06;;;20.86;29.82
75196;BME280;63773;42.282;22.782;2022-10-16T14:39:19;97122.19;;;20.90;31.34
75196;BME280;63773;42.282;22.782;2022-10-16T14:41:47;97124.38;;;20.79;29.95
75196;BME280;63773;42.282;22.782;2022-10-16T14:44:13;97129.25;;;20.60;30.93
75196;BME280;63773;42.282;22.782;2022-10-16T14:46:43;97121.31;;;20.53;31.13
75196;BME280;63773;42.282;22.782;2022-10-16T14:51:35;97117.50;;;20.49;30.44
75196;BME280;63773;42.282;22.782;2022-10-16T14:54:00;97131.59;;;20.53;31.56
75196;BME280;63773;42.282;22.782;2022-10-16T14:56:44;97128.28;;;20.24;31.82
75196;BME280;63773;42.282;22.782;2022-10-16T14:59:16;97134.34;;;20.12;31.82
75196;BME280;63773;42.282;22.782;2022-10-16T15:01:43;97126.91;;;20.07;31.59
75196;BME280;63773;42.282;22.782;2022-10-16T15:04:11;97134.34;;;20.12;31.85
75196;BME280;63773;42.282;22.782;2022-10-16T15:06:37;97130.75;;;20.11;31.41
75196;BME280;63773;42.282;22.782;2022-10-16T15:09:03;97132.19;;;20.09;32.15